Pagina principale
METAR-TAF:

METAR-TAF

Aeroporti :

N'Djamena, Ciad

Aeroporto di N'Djamena-Hassan Djamous

latitudine: 12-08N, longitudine: 015-02E, altezza: 295 m

Osservazione

Il bollettino è stato emesso 56 minuti fa, alle 13:00 UTC
Vento 9 kt da nord-est, variando fra nord e est
Temperature 40°C
Umidità 12%
Pressione 1006 hPa
Visibilità 10 km o più
nessuna nube inferiore a 1500 m e nessun cumulonembo

METAR: FTTJ 241300Z 04009KT 360V080 CAVOK 40/05 Q1006 NOSIG

Ora: 14:56 (13:56 UTC)

Previsione

Il bollettino è stato emesso 2 ore e 56 minuti fa, alle 11:00 UTC
Previsione valida dal 24 alle 12 UTC al 25 alle 18 UTC
Vento 6 kt da nord
Visibilità: 8000 m
Temporaneamente
dal 25 alle 06 UTC al 25 alle 12 UTC
Vento 14 kt da est/nord-est

TAF: FTTJ 241100Z 2412/2518 36006KT 8000 NSC TEMPO 2506/2512 06014KT

Osservazioni e previsioni meteorologiche di più di 4000 aeroporti (messaggi METAR e TAF).

Le stazioni disponibili sono rappresentate dai dischi gialli e rossi sulla carta.

Puntare il mouse per vedere il nome della stazione.

Clicca sopra per visualizzare le osservazioni e previsioni meteorologiche.

Per cambiare la mappa : fare clic sui pulsanti verdi con una croce nera per ingrandire, il pulsante verde con un trattino per diminuire, o sulla freccia verde per le mappe adiacenti.


METAR-TAF: